createdAt,value
2018-12-22T00:00:31.792Z,23.37
2018-12-22T00:02:59.344Z,21.93
2018-12-22T00:05:26.764Z,20.23
2018-12-22T00:07:54.253Z,22.93
2018-12-22T00:10:21.728Z,19.13
2018-12-22T00:12:49.181Z,23.23
2018-12-22T00:15:16.640Z,24.37
2018-12-22T00:17:44.087Z,25.53
2018-12-22T00:20:11.552Z,21.50
2018-12-22T00:22:39.010Z,25.40
2018-12-22T00:25:06.732Z,22.87
2018-12-22T00:27:34.270Z,17.23
2018-12-22T00:30:01.989Z,21.33
2018-12-22T00:32:29.473Z,20.97
2018-12-22T00:34:56.996Z,17.13
2018-12-22T00:37:24.388Z,20.77
2018-12-22T00:39:51.866Z,18.47
2018-12-22T00:42:19.480Z,21.67
2018-12-22T00:44:46.936Z,19.33
2018-12-22T00:47:14.387Z,19.30
2018-12-22T00:49:41.955Z,22.67
2018-12-22T00:52:09.608Z,13.57
2018-12-22T00:54:37.072Z,17.27
2018-12-22T00:57:04.737Z,18.23
2018-12-22T00:59:32.496Z,17.60
2018-12-22T01:01:59.984Z,21.90
2018-12-22T01:04:27.621Z,20.40
2018-12-22T01:06:55.296Z,18.50
2018-12-22T01:09:22.772Z,19.17
2018-12-22T01:11:50.295Z,16.20
2018-12-22T01:14:17.752Z,16.47
2018-12-22T01:16:45.213Z,17.57
2018-12-22T01:19:12.768Z,24.53
2018-12-22T01:21:40.220Z,20.23
2018-12-22T01:24:07.784Z,19.53
2018-12-22T01:26:35.244Z,17.77
2018-12-22T01:29:02.693Z,20.70
2018-12-22T01:31:30.144Z,16.03
2018-12-22T01:33:57.616Z,17.80
2018-12-22T01:36:25.066Z,23.33
2018-12-22T01:38:52.611Z,21.73
2018-12-22T01:41:20.066Z,18.07
2018-12-22T01:43:47.528Z,18.33
2018-12-22T01:46:15.004Z,19.37
2018-12-22T01:48:42.471Z,16.67
2018-12-22T01:51:09.911Z,14.73
2018-12-22T01:53:37.456Z,23.67
2018-12-22T01:56:05.235Z,18.67
2018-12-22T01:58:32.789Z,20.93
2018-12-22T02:01:00.234Z,21.57
2018-12-22T02:03:28.005Z,24.47
2018-12-22T02:05:55.487Z,20.47
2018-12-22T02:08:22.963Z,18.57
2018-12-22T02:10:50.415Z,24.87
2018-12-22T02:13:17.831Z,24.03
2018-12-22T02:15:45.294Z,19.53
2018-12-22T02:18:12.952Z,20.27
2018-12-22T02:20:40.489Z,22.80
2018-12-22T02:23:08.061Z,18.33
2018-12-22T02:25:35.541Z,19.43
2018-12-22T02:28:03.197Z,17.77
2018-12-22T02:30:30.657Z,17.73
2018-12-22T02:32:58.114Z,20.87
2018-12-22T02:35:25.589Z,22.07
2018-12-22T02:37:53.131Z,20.73
2018-12-22T02:40:20.693Z,18.60
2018-12-22T02:42:48.280Z,21.40
2018-12-22T02:45:15.772Z,25.00
2018-12-22T02:47:43.305Z,22.63
2018-12-22T02:50:10.920Z,18.73
2018-12-22T02:52:38.373Z,19.70
2018-12-22T02:55:06.834Z,18.67
2018-12-22T02:57:34.281Z,19.53
2018-12-22T03:00:01.792Z,20.73
2018-12-22T03:02:29.328Z,23.83
2018-12-22T03:04:56.797Z,19.93
2018-12-22T03:07:24.232Z,22.67
2018-12-22T03:09:51.721Z,15.77
2018-12-22T03:12:19.225Z,15.77
2018-12-22T03:14:46.721Z,17.00
2018-12-22T03:17:14.271Z,18.67
2018-12-22T03:19:41.869Z,19.10
2018-12-22T03:22:09.292Z,20.87
2018-12-22T03:24:36.973Z,17.70
2018-12-22T03:27:04.532Z,17.87
2018-12-22T03:29:31.986Z,17.17
2018-12-22T03:31:59.543Z,21.40
2018-12-22T03:34:27.081Z,13.03
2018-12-22T03:36:54.513Z,15.33
2018-12-22T03:39:22.000Z,13.93
2018-12-22T03:41:49.462Z,14.93
2018-12-22T03:44:16.945Z,19.37
2018-12-22T03:46:44.473Z,14.17
2018-12-22T03:49:11.900Z,15.73
2018-12-22T03:51:39.411Z,14.70
2018-12-22T03:54:06.935Z,11.40
2018-12-22T03:56:34.508Z,13.53
2018-12-22T03:59:01.968Z,9.57
2018-12-22T04:01:29.531Z,13.40
2018-12-22T04:03:56.983Z,12.50
2018-12-22T04:06:24.408Z,9.53
2018-12-22T04:08:51.988Z,10.13
2018-12-22T04:11:19.421Z,10.20
2018-12-22T04:13:47.005Z,7.80
2018-12-22T04:16:14.572Z,9.00
2018-12-22T04:18:42.121Z,11.63
2018-12-22T04:21:09.581Z,8.70
2018-12-22T04:23:37.034Z,5.33
2018-12-22T04:26:04.502Z,3.37
2018-12-22T04:28:32.001Z,4.47
2018-12-22T04:30:59.477Z,4.80
2018-12-22T04:33:26.970Z,5.90
2018-12-22T04:35:54.397Z,2.40
2018-12-22T04:38:21.883Z,6.33
2018-12-22T04:40:49.348Z,3.90
2018-12-22T04:43:16.779Z,3.80
2018-12-22T04:45:44.252Z,4.03
2018-12-22T04:48:11.806Z,4.07
2018-12-22T04:50:39.268Z,5.20
2018-12-22T04:53:06.735Z,3.50
2018-12-22T04:55:34.214Z,5.13
2018-12-22T04:58:01.746Z,4.73
2018-12-22T05:00:29.173Z,2.90
2018-12-22T05:02:56.652Z,3.10
2018-12-22T05:05:24.213Z,3.63
2018-12-22T05:07:51.669Z,4.50
2018-12-22T05:10:19.241Z,5.93
2018-12-22T05:12:46.871Z,3.80
2018-12-22T05:15:14.296Z,4.80
2018-12-22T05:17:41.722Z,5.70
2018-12-22T05:20:09.361Z,4.67
2018-12-22T05:22:36.837Z,5.83
2018-12-22T05:25:04.384Z,5.50
2018-12-22T05:27:32.021Z,5.30
2018-12-22T05:29:59.498Z,4.00
2018-12-22T05:32:26.925Z,8.77
2018-12-22T05:34:55.488Z,4.80
2018-12-22T05:37:23.009Z,5.93
2018-12-22T05:39:50.448Z,5.50
2018-12-22T05:42:17.917Z,7.47
2018-12-22T05:44:45.388Z,5.77
2018-12-22T05:47:12.817Z,7.43
2018-12-22T05:49:40.279Z,7.63
2018-12-22T05:52:07.832Z,6.77
2018-12-22T05:54:35.308Z,4.63
2018-12-22T05:57:02.836Z,7.90
2018-12-22T05:59:30.285Z,7.17
2018-12-22T06:01:57.772Z,4.90
2018-12-22T06:04:25.199Z,7.10
2018-12-22T06:06:52.681Z,9.73
2018-12-22T06:09:20.233Z,10.73
2018-12-22T06:11:47.701Z,6.03
2018-12-22T06:14:15.246Z,8.90
2018-12-22T06:16:42.726Z,8.00
2018-12-22T06:19:10.170Z,7.17
2018-12-22T06:21:37.636Z,8.27
2018-12-22T06:24:05.092Z,7.83
2018-12-22T06:26:32.737Z,8.40
2018-12-22T06:29:00.201Z,10.37
2018-12-22T06:31:27.635Z,9.10
2018-12-22T06:33:55.215Z,8.80
2018-12-22T06:36:22.672Z,4.80
2018-12-22T06:38:50.113Z,4.80
2018-12-22T06:41:17.609Z,6.83
2018-12-22T06:43:45.045Z,7.03
2018-12-22T06:46:12.510Z,4.93
2018-12-22T06:48:40.113Z,4.77
2018-12-22T06:51:07.616Z,7.27
2018-12-22T06:53:35.164Z,5.23
2018-12-22T06:56:02.856Z,6.43
2018-12-22T06:58:30.392Z,7.63
2018-12-22T07:00:57.862Z,7.07
2018-12-22T07:03:25.306Z,4.97
2018-12-22T07:05:53.164Z,6.47
2018-12-22T07:08:20.937Z,6.97
2018-12-22T07:10:48.402Z,3.93
2018-12-22T07:13:15.859Z,4.60
2018-12-22T07:15:43.409Z,5.63
2018-12-22T07:18:10.968Z,3.67
2018-12-22T07:20:38.429Z,4.00
2018-12-22T07:23:05.886Z,1.97
2018-12-22T07:25:33.441Z,4.27
2018-12-22T07:28:00.896Z,4.93
2018-12-22T07:30:28.648Z,3.13
2018-12-22T07:32:57.182Z,2.97
2018-12-22T07:35:24.979Z,2.90
2018-12-22T07:37:52.474Z,7.13
2018-12-22T07:40:19.928Z,3.70
2018-12-22T07:42:47.349Z,5.07
2018-12-22T07:45:14.810Z,2.23
2018-12-22T07:47:42.298Z,10.43
2018-12-22T07:50:09.722Z,6.80
2018-12-22T07:52:37.145Z,7.77
2018-12-22T07:55:04.660Z,8.53
2018-12-22T07:57:32.086Z,7.60
2018-12-22T07:59:59.573Z,8.17
2018-12-22T08:02:27.133Z,8.53
2018-12-22T08:04:54.680Z,8.20
2018-12-22T08:07:22.097Z,9.47
2018-12-22T08:09:49.609Z,7.00
2018-12-22T08:12:17.069Z,6.90
2018-12-22T08:14:44.621Z,5.00
2018-12-22T08:17:12.049Z,5.97
2018-12-22T08:19:39.493Z,6.23
2018-12-22T08:22:08.533Z,7.00
2018-12-22T08:24:36.406Z,6.13
2018-12-22T08:27:03.861Z,5.90
2018-12-22T08:29:31.323Z,5.10
2018-12-22T08:31:58.750Z,4.80
2018-12-22T08:34:26.231Z,3.83
2018-12-22T08:36:54.500Z,6.03
2018-12-22T08:39:22.260Z,4.13
2018-12-22T08:41:49.721Z,5.13
2018-12-22T08:44:17.221Z,3.87
2018-12-22T08:46:44.736Z,5.20
2018-12-22T08:49:12.201Z,4.70
2018-12-22T08:51:39.665Z,5.27
2018-12-22T08:54:07.113Z,3.83
2018-12-22T08:56:34.669Z,7.07
2018-12-22T08:59:02.328Z,6.27
2018-12-22T09:01:29.895Z,7.07
2018-12-22T09:03:57.321Z,5.23
2018-12-22T09:06:25.021Z,5.33
2018-12-22T09:08:53.933Z,5.73
2018-12-22T09:11:21.567Z,4.07
2018-12-22T09:13:49.023Z,5.50
2018-12-22T09:16:16.577Z,5.87
2018-12-22T09:18:44.136Z,5.27
2018-12-22T09:21:11.674Z,7.37
2018-12-22T09:23:39.186Z,8.33
2018-12-22T09:26:08.479Z,5.80
2018-12-22T09:28:36.237Z,8.30
2018-12-22T09:31:03.690Z,8.77
2018-12-22T09:33:31.230Z,8.60
2018-12-22T09:35:58.686Z,8.37
2018-12-22T09:38:26.151Z,8.90
2018-12-22T09:40:53.629Z,7.73
2018-12-22T09:43:21.112Z,9.90
2018-12-22T09:45:48.732Z,9.03
2018-12-22T09:48:16.224Z,10.53
2018-12-22T09:50:43.741Z,9.50
2018-12-22T09:53:11.168Z,9.03
2018-12-22T09:55:38.754Z,8.53
2018-12-22T09:58:06.210Z,14.47
2018-12-22T10:00:33.676Z,10.57
2018-12-22T10:03:01.269Z,10.07
2018-12-22T10:05:28.789Z,10.60
2018-12-22T10:07:56.235Z,7.43
2018-12-22T10:10:23.713Z,8.30
2018-12-22T10:12:51.249Z,8.70
2018-12-22T10:15:18.677Z,8.33
2018-12-22T10:17:46.176Z,11.53
2018-12-22T10:20:16.185Z,10.80
2018-12-22T10:22:43.750Z,5.10
2018-12-22T10:25:11.257Z,10.43
2018-12-22T10:27:38.753Z,8.03
2018-12-22T10:30:08.829Z,11.57
2018-12-22T10:32:36.347Z,10.93
2018-12-22T10:35:11.349Z,9.70
2018-12-22T10:37:38.925Z,10.90
2018-12-22T10:40:08.448Z,8.28
2018-12-22T10:42:36.155Z,8.87
2018-12-22T10:45:05.738Z,7.03
2018-12-22T10:47:33.268Z,7.47
2018-12-22T10:50:00.820Z,9.67
2018-12-22T10:52:28.241Z,7.57
2018-12-22T10:54:55.726Z,9.77
2018-12-22T10:57:23.400Z,11.60
2018-12-22T10:59:50.957Z,8.67
2018-12-22T11:02:18.514Z,7.33
2018-12-22T11:04:46.011Z,7.57
2018-12-22T11:07:13.551Z,7.37
2018-12-22T11:09:40.993Z,8.07
2018-12-22T11:12:08.537Z,8.57
2018-12-22T11:14:35.965Z,8.27
2018-12-22T11:17:03.659Z,6.40
2018-12-22T11:19:31.116Z,11.07
2018-12-22T11:21:58.577Z,12.13
2018-12-22T11:24:26.024Z,10.73
2018-12-22T11:26:53.489Z,7.30
2018-12-22T11:29:20.977Z,10.60
2018-12-22T11:31:48.481Z,10.93
2018-12-22T11:34:15.961Z,10.90
2018-12-22T11:36:43.516Z,8.27
2018-12-22T11:39:10.957Z,10.33
2018-12-22T11:41:38.387Z,8.47
2018-12-22T11:44:05.941Z,10.70
2018-12-22T11:46:33.468Z,11.37
2018-12-22T11:49:01.083Z,10.20
2018-12-22T11:51:28.677Z,11.73
2018-12-22T11:53:56.180Z,10.43
2018-12-22T11:56:23.865Z,9.33
2018-12-22T11:58:51.316Z,9.33
2018-12-22T12:01:19.003Z,9.47
2018-12-22T12:03:46.651Z,7.40
2018-12-22T12:06:14.085Z,8.80
2018-12-22T12:08:41.585Z,11.50
2018-12-22T12:11:09.188Z,9.27
2018-12-22T12:13:36.817Z,8.97
2018-12-22T12:16:07.381Z,6.93
2018-12-22T12:18:41.227Z,6.67
2018-12-22T12:21:08.906Z,9.33
2018-12-22T12:23:36.549Z,9.13
2018-12-22T12:26:04.213Z,6.33
2018-12-22T12:28:31.809Z,5.27
2018-12-22T12:30:59.639Z,7.97
2018-12-22T12:33:27.300Z,8.30
2018-12-22T12:35:54.978Z,5.97
2018-12-22T12:38:22.413Z,9.63
2018-12-22T12:40:50.110Z,7.80
2018-12-22T12:43:17.550Z,8.80
2018-12-22T12:45:45.009Z,6.67
2018-12-22T12:48:12.941Z,7.87
2018-12-22T12:50:42.521Z,6.87
2018-12-22T12:53:10.025Z,6.27
2018-12-22T12:55:37.566Z,7.90
2018-12-22T12:58:05.073Z,10.37
2018-12-22T13:00:32.666Z,9.33
2018-12-22T13:03:00.227Z,6.60
2018-12-22T13:05:27.732Z,8.63
2018-12-22T13:07:55.288Z,6.90
2018-12-22T13:10:22.870Z,7.33
2018-12-22T13:12:57.814Z,10.67
2018-12-22T13:15:25.289Z,8.43
2018-12-22T13:17:52.806Z,7.37
2018-12-22T13:20:20.258Z,9.30
2018-12-22T13:22:47.810Z,7.23
2018-12-22T13:25:15.258Z,6.60
2018-12-22T13:27:42.737Z,6.93
2018-12-22T13:30:12.207Z,8.87
2018-12-22T13:32:39.688Z,10.40
2018-12-22T13:35:09.397Z,6.97
2018-12-22T13:37:36.957Z,7.53
2018-12-22T13:40:09.517Z,7.33
2018-12-22T13:42:37.345Z,5.70
2018-12-22T13:45:09.772Z,8.27
2018-12-22T13:47:37.688Z,9.13
2018-12-22T13:50:13.502Z,11.57
2018-12-22T13:52:41.148Z,7.63
2018-12-22T13:55:09.462Z,9.53
2018-12-22T13:57:43.041Z,9.07
2018-12-22T14:00:16.537Z,11.13
2018-12-22T14:02:44.190Z,9.70
2018-12-22T14:05:18.102Z,9.20
2018-12-22T14:07:45.577Z,10.27
2018-12-22T14:10:13.507Z,9.43
2018-12-22T14:12:40.911Z,9.90
2018-12-22T14:15:15.606Z,8.63
2018-12-22T14:17:46.697Z,10.33
2018-12-22T14:20:14.309Z,7.97
2018-12-22T14:22:41.975Z,9.63
2018-12-22T14:25:12.485Z,10.80
2018-12-22T14:27:39.967Z,10.80
2018-12-22T14:30:12.060Z,9.87
2018-12-22T14:32:39.664Z,14.30
2018-12-22T14:35:11.562Z,10.40
2018-12-22T14:37:39.061Z,7.67
2018-12-22T14:40:11.190Z,8.08
2018-12-22T14:42:38.848Z,14.60
2018-12-22T14:45:10.877Z,11.00
2018-12-22T14:47:38.314Z,12.10
2018-12-22T14:50:12.978Z,10.50
2018-12-22T14:52:40.400Z,9.77
2018-12-22T14:55:11.056Z,11.33
2018-12-22T14:57:56.125Z,8.43
2018-12-22T15:00:23.692Z,12.07
2018-12-22T15:02:51.180Z,12.50
2018-12-22T15:05:18.852Z,13.03
2018-12-22T15:07:46.377Z,11.03
2018-12-22T15:10:13.944Z,12.20
2018-12-22T15:12:41.409Z,13.20
2018-12-22T15:15:10.700Z,12.33
2018-12-22T15:17:41.236Z,11.33
2018-12-22T15:20:16.909Z,9.13
2018-12-22T15:22:44.388Z,12.17
2018-12-22T15:25:11.905Z,13.87
2018-12-22T15:27:39.335Z,10.00
2018-12-22T15:30:11.121Z,9.87
2018-12-22T15:32:44.240Z,13.30
2018-12-22T15:35:08.883Z,10.50
2018-12-22T15:37:36.314Z,12.20
2018-12-22T15:40:08.553Z,11.70
2018-12-22T15:42:36.153Z,9.50
2018-12-22T15:45:07.434Z,11.10
2018-12-22T15:47:34.965Z,13.47
2018-12-22T15:50:03.350Z,10.40
2018-12-22T15:52:30.911Z,9.67
2018-12-22T15:54:58.349Z,11.83
2018-12-22T15:57:26.134Z,13.30
2018-12-22T15:59:53.636Z,9.43
2018-12-22T16:02:21.091Z,9.53
2018-12-22T16:04:48.605Z,13.57
2018-12-22T16:07:16.153Z,11.77
2018-12-22T16:09:43.812Z,13.67
2018-12-22T16:12:11.271Z,15.97
2018-12-22T16:14:38.735Z,10.20
2018-12-22T16:17:06.369Z,11.77
2018-12-22T16:19:34.057Z,11.03
2018-12-22T16:22:01.625Z,10.40
2018-12-22T16:24:29.370Z,16.23
2018-12-22T16:26:56.828Z,15.53
2018-12-22T16:29:24.423Z,17.90
2018-12-22T16:31:52.167Z,11.60
2018-12-22T16:34:19.668Z,13.33
2018-12-22T16:36:47.133Z,14.63
2018-12-22T16:39:14.640Z,14.17
2018-12-22T16:41:42.069Z,13.40
2018-12-22T16:44:09.733Z,14.33
2018-12-22T16:46:37.310Z,12.13
2018-12-22T16:49:04.765Z,14.63
2018-12-22T16:51:32.378Z,12.23
2018-12-22T16:53:59.990Z,20.57
2018-12-22T16:56:27.449Z,17.17
2018-12-22T16:58:56.139Z,17.53
2018-12-22T17:01:28.185Z,18.63
2018-12-22T17:03:55.653Z,12.97
2018-12-22T17:06:23.136Z,16.57
2018-12-22T17:08:50.869Z,20.63
2018-12-22T17:11:18.409Z,17.73
2018-12-22T17:13:45.999Z,13.73
2018-12-22T17:16:13.670Z,15.43
2018-12-22T17:18:41.140Z,17.90
2018-12-22T17:21:13.173Z,15.37
2018-12-22T17:23:46.115Z,19.10
2018-12-22T17:26:13.622Z,17.13
2018-12-22T17:28:41.149Z,16.83
2018-12-22T17:31:08.866Z,23.50
2018-12-22T17:33:36.493Z,15.57
2018-12-22T17:36:04.593Z,15.07
2018-12-22T17:38:32.508Z,14.97
2018-12-22T17:41:00.001Z,17.17
2018-12-22T17:43:27.629Z,20.93
2018-12-22T17:45:55.121Z,17.87
2018-12-22T17:48:22.584Z,15.03
2018-12-22T17:50:50.141Z,17.60
2018-12-22T17:53:17.827Z,13.70
2018-12-22T17:55:45.356Z,16.90
2018-12-22T17:58:12.829Z,14.60
2018-12-22T18:00:40.342Z,12.73
2018-12-22T18:03:09.502Z,13.23
2018-12-22T18:05:37.025Z,13.27
2018-12-22T18:08:04.680Z,16.27
2018-12-22T18:10:32.353Z,12.27
2018-12-22T18:12:59.837Z,15.80
2018-12-22T18:15:27.684Z,10.00
2018-12-22T18:17:55.229Z,12.07
2018-12-22T18:20:22.692Z,11.63
2018-12-22T18:22:50.141Z,14.73
2018-12-22T18:25:19.587Z,11.37
2018-12-22T18:27:49.310Z,12.17
2018-12-22T18:30:16.817Z,11.00
2018-12-22T18:32:45.379Z,14.20
2018-12-22T18:35:13.066Z,11.83
2018-12-22T18:37:40.518Z,16.40
2018-12-22T18:40:11.160Z,9.80
2018-12-22T18:42:38.600Z,14.87
2018-12-22T18:45:09.747Z,15.63
2018-12-22T18:47:37.317Z,14.27
2018-12-22T18:50:12.238Z,10.77
2018-12-22T18:52:39.904Z,15.73
2018-12-22T18:55:08.896Z,13.93
2018-12-22T18:57:36.566Z,16.97
2018-12-22T19:00:12.039Z,14.27
2018-12-22T19:02:39.457Z,12.83
2018-12-22T19:05:08.070Z,13.40
2018-12-22T19:07:35.697Z,11.93
2018-12-22T19:10:05.935Z,15.67
2018-12-22T19:12:33.365Z,14.20
2018-12-22T19:15:01.050Z,11.93
2018-12-22T19:17:28.685Z,13.10
2018-12-22T19:19:56.113Z,12.90
2018-12-22T19:22:23.718Z,16.80
2018-12-22T19:24:51.173Z,16.23
2018-12-22T19:27:18.638Z,12.87
2018-12-22T19:29:46.190Z,14.67
2018-12-22T19:32:13.620Z,12.50
2018-12-22T19:34:41.116Z,19.47
2018-12-22T19:37:08.765Z,17.63
2018-12-22T19:39:36.230Z,15.83
2018-12-22T19:42:03.784Z,20.37
2018-12-22T19:44:31.329Z,16.07
2018-12-22T19:46:58.785Z,23.13
2018-12-22T19:49:26.257Z,14.80
2018-12-22T19:51:53.819Z,16.63
2018-12-22T19:54:21.246Z,20.17
2018-12-22T19:56:48.673Z,17.67
2018-12-22T19:59:16.171Z,15.23
2018-12-22T20:01:43.649Z,17.80
2018-12-22T20:04:11.077Z,12.27
2018-12-22T20:06:38.644Z,17.10
2018-12-22T20:09:06.130Z,14.57
2018-12-22T20:11:33.757Z,16.23
2018-12-22T20:14:01.235Z,15.77
2018-12-22T20:16:28.694Z,20.27
2018-12-22T20:18:56.185Z,16.40
2018-12-22T20:21:23.710Z,16.87
2018-12-22T20:23:51.160Z,14.53
2018-12-22T20:26:18.722Z,14.20
2018-12-22T20:28:46.281Z,19.10
2018-12-22T20:31:13.730Z,18.03
2018-12-22T20:33:41.205Z,14.43
2018-12-22T20:36:08.755Z,15.40
2018-12-22T20:38:36.308Z,19.20
2018-12-22T20:41:03.861Z,18.60
2018-12-22T20:43:31.325Z,15.50
2018-12-22T20:45:58.763Z,17.87
2018-12-22T20:48:26.245Z,14.33
2018-12-22T20:50:53.711Z,13.70
2018-12-22T20:53:24.620Z,16.73
2018-12-22T20:55:52.049Z,16.23
2018-12-22T20:58:19.554Z,14.87
2018-12-22T21:00:47.036Z,16.17
2018-12-22T21:03:14.568Z,13.83
2018-12-22T21:05:44.673Z,16.07
2018-12-22T21:08:12.199Z,14.53
2018-12-22T21:10:39.719Z,14.70
2018-12-22T21:13:07.164Z,18.10
2018-12-22T21:15:34.806Z,9.30
2018-12-22T21:18:02.329Z,12.77
2018-12-22T21:20:29.762Z,19.83
2018-12-22T21:22:57.289Z,15.33
2018-12-22T21:25:24.756Z,13.23
2018-12-22T21:27:52.213Z,16.53
2018-12-22T21:30:19.870Z,11.57
2018-12-22T21:32:47.357Z,13.37
2018-12-22T21:35:14.892Z,15.57
2018-12-22T21:37:42.542Z,16.73
2018-12-22T21:40:10.003Z,17.43
2018-12-22T21:42:37.562Z,18.33
2018-12-22T21:45:05.196Z,15.37
2018-12-22T21:47:32.686Z,14.47
2018-12-22T21:50:00.284Z,16.53
2018-12-22T21:52:27.760Z,18.77
2018-12-22T21:54:55.198Z,16.90
2018-12-22T21:57:22.813Z,17.57
2018-12-22T21:59:50.258Z,20.77
2018-12-22T22:02:17.680Z,15.53
2018-12-22T22:04:45.189Z,15.57
2018-12-22T22:07:12.638Z,18.27
2018-12-22T22:09:40.098Z,17.43
2018-12-22T22:12:07.606Z,21.90
2018-12-22T22:14:35.130Z,17.70
2018-12-22T22:17:02.582Z,15.13
2018-12-22T22:19:30.135Z,16.50
2018-12-22T22:21:57.714Z,21.50
2018-12-22T22:24:25.149Z,16.33
2018-12-22T22:26:52.620Z,15.57
2018-12-22T22:29:20.044Z,17.50
2018-12-22T22:31:47.504Z,21.07
2018-12-22T22:34:15.781Z,12.03
2018-12-22T22:36:43.209Z,11.67
2018-12-22T22:39:10.707Z,14.57
2018-12-22T22:41:38.173Z,16.70
2018-12-22T22:44:05.718Z,13.17
2018-12-22T22:46:33.177Z,9.80
2018-12-22T22:49:00.841Z,10.70
2018-12-22T22:51:28.317Z,11.73
2018-12-22T22:53:55.758Z,9.97
2018-12-22T22:56:23.325Z,13.37
2018-12-22T22:58:50.769Z,10.90
2018-12-22T23:01:18.237Z,14.90
2018-12-22T23:03:45.780Z,12.10
2018-12-22T23:06:13.205Z,10.20
2018-12-22T23:08:40.805Z,15.93
2018-12-22T23:11:08.365Z,13.33
2018-12-22T23:13:35.827Z,11.90
2018-12-22T23:16:03.391Z,16.47
2018-12-22T23:18:30.933Z,15.83
2018-12-22T23:20:58.397Z,13.13
2018-12-22T23:23:25.825Z,10.67
2018-12-22T23:25:53.369Z,13.47
2018-12-22T23:28:20.799Z,12.30
2018-12-22T23:30:48.220Z,15.23
2018-12-22T23:33:15.776Z,12.67
2018-12-22T23:35:43.342Z,10.27
2018-12-22T23:38:10.761Z,17.33
2018-12-22T23:40:38.247Z,14.97
2018-12-22T23:43:05.708Z,14.30
2018-12-22T23:45:33.166Z,12.57
2018-12-22T23:48:00.809Z,15.07
2018-12-22T23:50:28.232Z,11.37
2018-12-22T23:52:55.916Z,9.90
2018-12-22T23:55:23.526Z,11.53
2018-12-22T23:57:50.944Z,14.50
